sensor_id;sensor_type;location;lat;lon;timestamp;pressure;altitude;pressure_sealevel;temperature;humidity
55590;BME280;41452;42.780;23.116;2023-02-18T00:00:11;95086.13;;;3.02;67.57
55590;BME280;41452;42.780;23.116;2023-02-18T00:02:37;95091.50;;;3.00;67.38
55590;BME280;41452;42.780;23.116;2023-02-18T00:05:03;95085.00;;;2.96;67.42
55590;BME280;41452;42.780;23.116;2023-02-18T00:07:33;95083.38;;;2.95;67.48
55590;BME280;41452;42.780;23.116;2023-02-18T00:09:58;95075.75;;;2.94;67.60
55590;BME280;41452;42.780;23.116;2023-02-18T00:12:24;95070.09;;;2.90;67.59
55590;BME280;41452;42.780;23.116;2023-02-18T00:14:49;95068.31;;;2.82;67.76
55590;BME280;41452;42.780;23.116;2023-02-18T00:17:15;95063.13;;;2.82;67.67
55590;BME280;41452;42.780;23.116;2023-02-18T00:19:40;95061.66;;;2.80;67.58
55590;BME280;41452;42.780;23.116;2023-02-18T00:22:05;95050.97;;;2.75;67.80
55590;BME280;41452;42.780;23.116;2023-02-18T00:24:31;95052.56;;;2.84;67.92
55590;BME280;41452;42.780;23.116;2023-02-18T00:26:56;95051.78;;;2.83;67.89
55590;BME280;41452;42.780;23.116;2023-02-18T00:29:21;95048.22;;;2.84;67.43
55590;BME280;41452;42.780;23.116;2023-02-18T00:31:47;95040.09;;;2.88;67.93
55590;BME280;41452;42.780;23.116;2023-02-18T00:34:13;95036.38;;;2.82;67.64
55590;BME280;41452;42.780;23.116;2023-02-18T00:36:39;95034.59;;;2.82;67.53
55590;BME280;41452;42.780;23.116;2023-02-18T00:39:07;95039.13;;;2.80;67.69
55590;BME280;41452;42.780;23.116;2023-02-18T00:41:34;95037.38;;;2.81;67.67
55590;BME280;41452;42.780;23.116;2023-02-18T00:43:59;94989.41;;;2.52;67.41
55590;BME280;41452;42.780;23.116;2023-02-18T00:46:25;95030.38;;;2.81;67.35
55590;BME280;41452;42.780;23.116;2023-02-18T00:48:51;95025.19;;;2.81;67.53
55590;BME280;41452;42.780;23.116;2023-02-18T00:51:17;95025.19;;;2.81;67.55
55590;BME280;41452;42.780;23.116;2023-02-18T00:53:42;95025.84;;;2.75;67.52
55590;BME280;41452;42.780;23.116;2023-02-18T00:56:08;95029.09;;;2.69;67.70
55590;BME280;41452;42.780;23.116;2023-02-18T00:58:35;95027.31;;;2.70;67.76
55590;BME280;41452;42.780;23.116;2023-02-18T01:01:01;95031.53;;;2.62;68.43
55590;BME280;41452;42.780;23.116;2023-02-18T01:03:26;95035.28;;;2.52;69.13
55590;BME280;41452;42.780;23.116;2023-02-18T01:05:52;95030.25;;;2.50;68.79
55590;BME280;41452;42.780;23.116;2023-02-18T01:08:19;95037.38;;;2.48;69.44
55590;BME280;41452;42.780;23.116;2023-02-18T01:10:46;95025.25;;;2.40;70.34
55590;BME280;41452;42.780;23.116;2023-02-18T01:13:13;95024.41;;;2.40;70.37
55590;BME280;41452;42.780;23.116;2023-02-18T01:15:40;95029.13;;;2.28;70.54
55590;BME280;41452;42.780;23.116;2023-02-18T01:18:07;95025.41;;;2.31;70.83
55590;BME280;41452;42.780;23.116;2023-02-18T01:20:36;95023.63;;;2.31;70.77
55590;BME280;41452;42.780;23.116;2023-02-18T01:23:03;95029.44;;;2.25;70.88
55590;BME280;41452;42.780;23.116;2023-02-18T01:25:28;95039.97;;;2.23;71.01
55590;BME280;41452;42.780;23.116;2023-02-18T01:27:54;95034.97;;;2.14;71.58
55590;BME280;41452;42.780;23.116;2023-02-18T01:30:20;95022.81;;;2.14;70.92
55590;BME280;41452;42.780;23.116;2023-02-18T01:32:46;95024.44;;;2.15;70.91
55590;BME280;41452;42.780;23.116;2023-02-18T01:35:17;95025.06;;;2.09;71.28
55590;BME280;41452;42.780;23.116;2023-02-18T01:37:44;95029.91;;;2.04;71.16
55590;BME280;41452;42.780;23.116;2023-02-18T01:40:11;95029.91;;;2.04;71.47
55590;BME280;41452;42.780;23.116;2023-02-18T01:42:38;95039.00;;;2.08;71.26
55590;BME280;41452;42.780;23.116;2023-02-18T01:48:10;95038.69;;;2.03;71.31
55590;BME280;41452;42.780;23.116;2023-02-18T01:50:41;95040.44;;;2.02;71.02
55590;BME280;41452;42.780;23.116;2023-02-18T01:53:07;95039.47;;;2.03;71.31
55590;BME280;41452;42.780;23.116;2023-02-18T01:55:34;95001.72;;;1.68;71.46
55590;BME280;41452;42.780;23.116;2023-02-18T01:58:00;95051.28;;;2.06;71.20
55590;BME280;41452;42.780;23.116;2023-02-18T02:00:26;95049.38;;;2.08;70.90
55590;BME280;41452;42.780;23.116;2023-02-18T02:02:52;95031.22;;;2.00;70.33
55590;BME280;41452;42.780;23.116;2023-02-18T02:05:19;95051.16;;;2.16;69.99
55590;BME280;41452;42.780;23.116;2023-02-18T02:07:48;95054.25;;;2.27;69.83
55590;BME280;41452;42.780;23.116;2023-02-18T02:10:16;95054.75;;;2.31;69.74
55590;BME280;41452;42.780;23.116;2023-02-18T02:12:46;95050.97;;;2.25;69.43
55590;BME280;41452;42.780;23.116;2023-02-18T02:21:03;95042.25;;;2.10;70.01
55590;BME280;41452;42.780;23.116;2023-02-18T02:35:05;95024.75;;;2.28;69.31
55590;BME280;41452;42.780;23.116;2023-02-18T02:40:21;95031.56;;;2.46;68.36
55590;BME280;41452;42.780;23.116;2023-02-18T02:46:01;95031.09;;;2.51;68.14
55590;BME280;41452;42.780;23.116;2023-02-18T02:48:51;95041.28;;;2.44;68.71
55590;BME280;41452;42.780;23.116;2023-02-18T02:54:24;95042.41;;;2.58;68.62
55590;BME280;41452;42.780;23.116;2023-02-18T02:56:49;95043.88;;;2.60;68.72
55590;BME280;41452;42.780;23.116;2023-02-18T02:59:19;95032.03;;;2.66;68.31
55590;BME280;41452;42.780;23.116;2023-02-18T03:02:12;95031.22;;;2.65;67.90
55590;BME280;41452;42.780;23.116;2023-02-18T03:10:19;95046.75;;;2.82;67.13
55590;BME280;41452;42.780;23.116;2023-02-18T03:13:03;95039.59;;;2.84;67.31
55590;BME280;41452;42.780;23.116;2023-02-18T03:18:01;95049.97;;;2.84;67.20
55590;BME280;41452;42.780;23.116;2023-02-18T03:20:38;95054.38;;;2.83;67.39
55590;BME280;41452;42.780;23.116;2023-02-18T03:23:12;95061.34;;;2.75;66.95
55590;BME280;41452;42.780;23.116;2023-02-18T03:25:40;95063.47;;;2.71;66.99
55590;BME280;41452;42.780;23.116;2023-02-18T03:28:10;95020.53;;;2.44;67.23
55590;BME280;41452;42.780;23.116;2023-02-18T03:30:59;95075.94;;;2.76;67.70
55590;BME280;41452;42.780;23.116;2023-02-18T03:33:37;95077.56;;;2.77;67.79
55590;BME280;41452;42.780;23.116;2023-02-18T03:36:05;95080.16;;;2.77;67.68
55590;BME280;41452;42.780;23.116;2023-02-18T03:41:19;95081.78;;;2.78;67.88
55590;BME280;41452;42.780;23.116;2023-02-18T03:43:49;95087.63;;;2.80;66.82
55590;BME280;41452;42.780;23.116;2023-02-18T03:46:15;95083.38;;;2.79;67.22
55590;BME280;41452;42.780;23.116;2023-02-18T03:48:40;95044.84;;;2.51;67.43
55590;BME280;41452;42.780;23.116;2023-02-18T03:51:06;95083.38;;;2.79;67.43
55590;BME280;41452;42.780;23.116;2023-02-18T03:53:31;95082.44;;;2.80;67.60
55590;BME280;41452;42.780;23.116;2023-02-18T03:55:57;95070.13;;;2.74;67.23
55590;BME280;41452;42.780;23.116;2023-02-18T03:58:22;95086.16;;;2.85;67.16
55590;BME280;41452;42.780;23.116;2023-02-18T04:00:47;95086.63;;;2.89;66.70
55590;BME280;41452;42.780;23.116;2023-02-18T04:03:13;95078.03;;;2.89;67.06
55590;BME280;41452;42.780;23.116;2023-02-18T04:05:38;95086.16;;;2.85;67.78
55590;BME280;41452;42.780;23.116;2023-02-18T04:08:03;95074.00;;;2.86;67.48
55590;BME280;41452;42.780;23.116;2023-02-18T04:10:29;95062.31;;;2.82;67.40
55590;BME280;41452;42.780;23.116;2023-02-18T04:12:55;95082.44;;;2.88;67.31
55590;BME280;41452;42.780;23.116;2023-02-18T04:15:20;95075.28;;;2.82;67.02
55590;BME280;41452;42.780;23.116;2023-02-18T04:17:46;95073.69;;;2.81;67.12
55590;BME280;41452;42.780;23.116;2023-02-18T04:20:12;95063.78;;;2.76;67.29
55590;BME280;41452;42.780;23.116;2023-02-18T04:22:37;95055.19;;;2.76;67.13
55590;BME280;41452;42.780;23.116;2023-02-18T04:25:03;95050.16;;;2.82;67.02
55590;BME280;41452;42.780;23.116;2023-02-18T04:27:28;95046.44;;;2.85;67.40
55590;BME280;41452;42.780;23.116;2023-02-18T04:29:53;95044.78;;;2.84;67.38
55590;BME280;41452;42.780;23.116;2023-02-18T04:32:19;95052.56;;;2.84;67.23
55590;BME280;41452;42.780;23.116;2023-02-18T04:34:44;95053.72;;;2.73;67.77
55590;BME280;41452;42.780;23.116;2023-02-18T04:37:09;95069.66;;;2.70;67.93
55590;BME280;41452;42.780;23.116;2023-02-18T04:39:35;95036.75;;;2.46;67.72
55590;BME280;41452;42.780;23.116;2023-02-18T04:42:00;95029.63;;;2.56;67.94
55590;BME280;41452;42.780;23.116;2023-02-18T04:44:26;95063.97;;;2.66;68.09
55590;BME280;41452;42.780;23.116;2023-02-18T04:46:51;95058.63;;;2.60;68.84
55590;BME280;41452;42.780;23.116;2023-02-18T04:49:16;95063.63;;;2.53;69.26
55590;BME280;41452;42.780;23.116;2023-02-18T04:51:42;95036.91;;;2.20;69.84
55590;BME280;41452;42.780;23.116;2023-02-18T04:54:07;95078.06;;;2.39;70.33
55590;BME280;41452;42.780;23.116;2023-02-18T04:56:33;95077.72;;;2.34;70.35
55590;BME280;41452;42.780;23.116;2023-02-18T04:58:58;95009.81;;;1.89;71.13
55590;BME280;41452;42.780;23.116;2023-02-18T05:01:23;95074.66;;;2.22;71.49
55590;BME280;41452;42.780;23.116;2023-02-18T05:03:49;95083.53;;;2.20;72.18
55590;BME280;41452;42.780;23.116;2023-02-18T05:06:14;95069.13;;;2.17;71.33
55590;BME280;41452;42.780;23.116;2023-02-18T05:08:39;95067.50;;;2.16;71.30
55590;BME280;41452;42.780;23.116;2023-02-18T05:11:08;95062.00;;;2.19;71.37
55590;BME280;41452;42.780;23.116;2023-02-18T05:13:34;95047.09;;;2.13;71.83
55590;BME280;41452;42.780;23.116;2023-02-18T05:15:59;95054.22;;;2.11;72.57
55590;BME280;41452;42.780;23.116;2023-02-18T05:18:25;95057.47;;;2.05;73.37
55590;BME280;41452;42.780;23.116;2023-02-18T05:20:50;95055.66;;;2.05;73.31
55590;BME280;41452;42.780;23.116;2023-02-18T05:23:15;95056.47;;;2.06;73.62
55590;BME280;41452;42.780;23.116;2023-02-18T05:25:42;95066.69;;;2.07;73.02
55590;BME280;41452;42.780;23.116;2023-02-18T05:28:08;95076.09;;;2.08;73.05
55590;BME280;41452;42.780;23.116;2023-02-18T05:30:33;95075.78;;;2.12;73.09
55590;BME280;41452;42.780;23.116;2023-02-18T05:32:58;95074.94;;;2.11;73.20
55590;BME280;41452;42.780;23.116;2023-02-18T05:35:24;95074.31;;;2.17;73.32
55590;BME280;41452;42.780;23.116;2023-02-18T05:37:49;95072.50;;;2.09;72.79
55590;BME280;41452;42.780;23.116;2023-02-18T05:40:14;95077.88;;;2.16;73.21
55590;BME280;41452;42.780;23.116;2023-02-18T05:42:41;95082.56;;;2.13;73.20
55590;BME280;41452;42.780;23.116;2023-02-18T05:45:06;95027.47;;;1.78;72.58
55590;BME280;41452;42.780;23.116;2023-02-18T05:47:32;95089.56;;;2.20;71.91
55590;BME280;41452;42.780;23.116;2023-02-18T05:49:57;95096.00;;;2.16;71.93
55590;BME280;41452;42.780;23.116;2023-02-18T05:52:23;95099.09;;;2.20;71.55
55590;BME280;41452;42.780;23.116;2023-02-18T05:54:48;95094.88;;;2.27;71.99
55590;BME280;41452;42.780;23.116;2023-02-18T05:57:14;95089.88;;;2.34;71.51
55590;BME280;41452;42.780;23.116;2023-02-18T05:59:40;95090.03;;;2.32;71.75
55590;BME280;41452;42.780;23.116;2023-02-18T06:02:05;95073.66;;;2.40;71.42
55590;BME280;41452;42.780;23.116;2023-02-18T06:04:31;95052.63;;;2.35;70.54
55590;BME280;41452;42.780;23.116;2023-02-18T06:06:56;95069.94;;;2.59;70.17
55590;BME280;41452;42.780;23.116;2023-02-18T06:09:22;95065.72;;;2.66;70.25
55590;BME280;41452;42.780;23.116;2023-02-18T06:11:47;95079.84;;;2.80;69.77
55590;BME280;41452;42.780;23.116;2023-02-18T06:14:12;95072.69;;;2.82;69.82
55590;BME280;41452;42.780;23.116;2023-02-18T06:16:38;95081.94;;;2.84;69.83
55590;BME280;41452;42.780;23.116;2023-02-18T06:19:03;95080.63;;;2.97;68.88
55590;BME280;41452;42.780;23.116;2023-02-18T06:21:29;95067.63;;;3.05;67.88
55590;BME280;41452;42.780;23.116;2023-02-18T06:23:55;95077.19;;;3.13;67.49
55590;BME280;41452;42.780;23.116;2023-02-18T06:26:20;95044.78;;;2.84;68.01
55590;BME280;41452;42.780;23.116;2023-02-18T06:28:45;95077.47;;;3.18;68.44
55590;BME280;41452;42.780;23.116;2023-02-18T06:31:11;95023.06;;;2.93;67.37
55590;BME280;41452;42.780;23.116;2023-02-18T06:33:36;95084.94;;;3.29;67.58
55590;BME280;41452;42.780;23.116;2023-02-18T06:36:05;95098.19;;;3.42;66.51
55590;BME280;41452;42.780;23.116;2023-02-18T06:38:36;95088.09;;;3.48;65.96
55590;BME280;41452;42.780;23.116;2023-02-18T06:41:01;95089.06;;;3.55;66.04
55590;BME280;41452;42.780;23.116;2023-02-18T06:43:27;95082.25;;;3.54;65.54
55590;BME280;41452;42.780;23.116;2023-02-18T06:45:52;95086.00;;;3.51;66.42
55590;BME280;41452;42.780;23.116;2023-02-18T06:48:18;95092.75;;;3.60;65.60
55590;BME280;41452;42.780;23.116;2023-02-18T06:50:43;95092.97;;;3.59;66.03
55590;BME280;41452;42.780;23.116;2023-02-18T06:53:09;95093.06;;;3.66;66.49
55590;BME280;41452;42.780;23.116;2023-02-18T06:55:35;95088.50;;;3.68;65.44
55590;BME280;41452;42.780;23.116;2023-02-18T06:58:00;95081.50;;;3.76;64.46
55590;BME280;41452;42.780;23.116;2023-02-18T07:00:25;95086.34;;;3.88;65.45
55590;BME280;41452;42.780;23.116;2023-02-18T07:02:51;95078.16;;;3.91;67.18
55590;BME280;41452;42.780;23.116;2023-02-18T07:05:16;95066.03;;;3.83;66.04
55590;BME280;41452;42.780;23.116;2023-02-18T07:07:42;95057.38;;;3.91;65.88
55590;BME280;41452;42.780;23.116;2023-02-18T07:10:08;95046.31;;;3.97;65.75
55590;BME280;41452;42.780;23.116;2023-02-18T07:12:34;95048.88;;;4.05;64.80
55590;BME280;41452;42.780;23.116;2023-02-18T07:14:59;95061.97;;;4.12;64.32
55590;BME280;41452;42.780;23.116;2023-02-18T07:17:25;95080.63;;;4.15;63.67
55590;BME280;41452;42.780;23.116;2023-02-18T07:19:50;95072.78;;;4.24;63.36
55590;BME280;41452;42.780;23.116;2023-02-18T07:22:16;95070.31;;;4.30;63.67
55590;BME280;41452;42.780;23.116;2023-02-18T07:24:41;95057.41;;;4.37;63.48
55590;BME280;41452;42.780;23.116;2023-02-18T07:27:07;95071.38;;;4.44;62.62
55590;BME280;41452;42.780;23.116;2023-02-18T07:29:33;95057.06;;;4.40;62.58
55590;BME280;41452;42.780;23.116;2023-02-18T07:31:58;95075.81;;;4.59;63.39
55590;BME280;41452;42.780;23.116;2023-02-18T07:34:23;95091.03;;;4.62;63.15
55590;BME280;41452;42.780;23.116;2023-02-18T07:36:49;95078.31;;;4.67;62.93
55590;BME280;41452;42.780;23.116;2023-02-18T07:39:14;95085.72;;;4.78;62.91
55590;BME280;41452;42.780;23.116;2023-02-18T07:41:42;95102.78;;;4.81;63.98
55590;BME280;41452;42.780;23.116;2023-02-18T07:44:07;95098.81;;;4.85;61.68
55590;BME280;41452;42.780;23.116;2023-02-18T07:46:33;95105.59;;;4.94;62.18
55590;BME280;41452;42.780;23.116;2023-02-18T07:48:58;95102.09;;;5.02;61.34
55590;BME280;41452;42.780;23.116;2023-02-18T07:51:23;95092.94;;;5.06;61.43
55590;BME280;41452;42.780;23.116;2023-02-18T07:53:49;95066.34;;;4.95;60.54
55590;BME280;41452;42.780;23.116;2023-02-18T07:56:14;95099.72;;;5.30;59.33
55590;BME280;41452;42.780;23.116;2023-02-18T07:58:39;95104.31;;;5.43;58.47
55590;BME280;41452;42.780;23.116;2023-02-18T08:01:07;95100.00;;;5.50;58.21
55590;BME280;41452;42.780;23.116;2023-02-18T08:03:33;95036.03;;;5.18;58.87
55590;BME280;41452;42.780;23.116;2023-02-18T08:05:59;95090.91;;;5.61;58.87
55590;BME280;41452;42.780;23.116;2023-02-18T08:08:27;95096.56;;;5.64;57.50
55590;BME280;41452;42.780;23.116;2023-02-18T08:10:55;95095.84;;;5.70;58.92
55590;BME280;41452;42.780;23.116;2023-02-18T08:13:21;95084.34;;;5.80;58.23
55590;BME280;41452;42.780;23.116;2023-02-18T08:15:46;95029.56;;;5.58;57.72
55590;BME280;41452;42.780;23.116;2023-02-18T08:18:20;95071.19;;;5.88;57.85
55590;BME280;41452;42.780;23.116;2023-02-18T08:20:47;95056.72;;;6.00;56.87
55590;BME280;41452;42.780;23.116;2023-02-18T08:23:13;95050.69;;;6.00;56.46
55590;BME280;41452;42.780;23.116;2023-02-18T08:25:39;95048.16;;;6.06;56.83
55590;BME280;41452;42.780;23.116;2023-02-18T08:28:04;95048.59;;;6.10;56.14
55590;BME280;41452;42.780;23.116;2023-02-18T08:30:30;95063.41;;;6.24;56.98
55590;BME280;41452;42.780;23.116;2023-02-18T08:32:55;95051.78;;;6.27;56.38
55590;BME280;41452;42.780;23.116;2023-02-18T08:35:21;95053.84;;;6.32;56.48
55590;BME280;41452;42.780;23.116;2023-02-18T08:37:47;95060.44;;;6.27;56.16
55590;BME280;41452;42.780;23.116;2023-02-18T08:40:13;95014.75;;;5.95;56.89
55590;BME280;41452;42.780;23.116;2023-02-18T08:42:38;95059.22;;;6.30;57.03
55590;BME280;41452;42.780;23.116;2023-02-18T08:45:05;95063.22;;;6.26;56.81
55590;BME280;41452;42.780;23.116;2023-02-18T08:47:31;95058.88;;;6.33;56.08
55590;BME280;41452;42.780;23.116;2023-02-18T08:49:56;95056.50;;;6.38;57.02
55590;BME280;41452;42.780;23.116;2023-02-18T08:52:22;95058.19;;;6.46;56.34
55590;BME280;41452;42.780;23.116;2023-02-18T08:54:47;95060.06;;;6.52;54.56
55590;BME280;41452;42.780;23.116;2023-02-18T08:57:13;95033.72;;;6.47;55.18
55590;BME280;41452;42.780;23.116;2023-02-18T08:59:39;95064.81;;;6.70;53.95
55590;BME280;41452;42.780;23.116;2023-02-18T09:02:04;95046.69;;;6.62;53.46
55590;BME280;41452;42.780;23.116;2023-02-18T09:04:30;95060.53;;;6.84;54.17
55590;BME280;41452;42.780;23.116;2023-02-18T09:06:55;95059.56;;;6.92;52.91
55590;BME280;41452;42.780;23.116;2023-02-18T09:09:21;95051.00;;;7.04;52.80
55590;BME280;41452;42.780;23.116;2023-02-18T09:11:46;95052.28;;;7.15;52.12
55590;BME280;41452;42.780;23.116;2023-02-18T09:14:13;95053.19;;;7.29;52.24
55590;BME280;41452;42.780;23.116;2023-02-18T09:16:39;95048.25;;;7.48;51.61
55590;BME280;41452;42.780;23.116;2023-02-18T09:19:05;95043.91;;;7.61;51.55
55590;BME280;41452;42.780;23.116;2023-02-18T09:21:31;94991.34;;;7.43;51.59
55590;BME280;41452;42.780;23.116;2023-02-18T09:23:57;95038.16;;;7.86;51.88
55590;BME280;41452;42.780;23.116;2023-02-18T09:26:23;95035.78;;;8.05;51.83
55590;BME280;41452;42.780;23.116;2023-02-18T09:28:51;95034.66;;;8.27;50.69
55590;BME280;41452;42.780;23.116;2023-02-18T09:31:19;95031.09;;;8.48;49.37
55590;BME280;41452;42.780;23.116;2023-02-18T09:33:57;95029.50;;;8.61;50.04
55590;BME280;41452;42.780;23.116;2023-02-18T09:36:23;95048.25;;;8.78;49.03
55590;BME280;41452;42.780;23.116;2023-02-18T09:38:49;95054.47;;;9.03;47.64
55590;BME280;41452;42.780;23.116;2023-02-18T09:41:40;95051.22;;;9.14;47.38
55590;BME280;41452;42.780;23.116;2023-02-18T09:44:15;95049.19;;;9.23;48.05
55590;BME280;41452;42.780;23.116;2023-02-18T09:49:24;95033.06;;;9.33;45.63
55590;BME280;41452;42.780;23.116;2023-02-18T09:51:51;95041.31;;;9.43;45.26
55590;BME280;41452;42.780;23.116;2023-02-18T09:54:19;95029.34;;;9.61;44.84
55590;BME280;41452;42.780;23.116;2023-02-18T09:56:45;95045.03;;;9.74;45.34
55590;BME280;41452;42.780;23.116;2023-02-18T09:59:20;95031.69;;;9.82;43.77
55590;BME280;41452;42.780;23.116;2023-02-18T10:01:49;95038.31;;;9.92;44.23
55590;BME280;41452;42.780;23.116;2023-02-18T10:04:26;95044.72;;;10.02;43.66
55590;BME280;41452;42.780;23.116;2023-02-18T10:06:55;95031.22;;;9.99;42.95
55590;BME280;41452;42.780;23.116;2023-02-18T10:09:28;95010.81;;;10.01;43.00
55590;BME280;41452;42.780;23.116;2023-02-18T10:12:18;95034.31;;;10.21;42.77
55590;BME280;41452;42.780;23.116;2023-02-18T10:14:58;95025.66;;;10.20;42.77
55590;BME280;41452;42.780;23.116;2023-02-18T10:17:27;95003.13;;;10.06;42.47
55590;BME280;41452;42.780;23.116;2023-02-18T10:19:55;95036.72;;;10.29;41.90
55590;BME280;41452;42.780;23.116;2023-02-18T10:22:23;95006.09;;;10.16;41.77
55590;BME280;41452;42.780;23.116;2023-02-18T10:24:52;95030.78;;;10.47;43.23
55590;BME280;41452;42.780;23.116;2023-02-18T10:27:35;95028.53;;;10.51;42.55
55590;BME280;41452;42.780;23.116;2023-02-18T10:30:50;95022.78;;;10.60;41.46
55590;BME280;41452;42.780;23.116;2023-02-18T10:33:31;95022.31;;;10.70;42.24
55590;BME280;41452;42.780;23.116;2023-02-18T10:36:01;94963.88;;;10.50;42.46
55590;BME280;41452;42.780;23.116;2023-02-18T10:47:01;95014.91;;;11.11;42.53
55590;BME280;41452;42.780;23.116;2023-02-18T10:49:57;95006.00;;;11.12;41.75
55590;BME280;41452;42.780;23.116;2023-02-18T10:52:24;94996.50;;;11.11;42.34
55590;BME280;41452;42.780;23.116;2023-02-18T10:57:25;94994.09;;;11.09;42.55
55590;BME280;41452;42.780;23.116;2023-02-18T11:02:35;94992.84;;;11.12;44.28
55590;BME280;41452;42.780;23.116;2023-02-18T11:05:26;94988.84;;;11.09;44.64
55590;BME280;41452;42.780;23.116;2023-02-18T11:07:55;94966.03;;;11.03;44.23
55590;BME280;41452;42.780;23.116;2023-02-18T11:10:41;94980.94;;;11.09;44.71
55590;BME280;41452;42.780;23.116;2023-02-18T11:13:09;94981.00;;;11.02;44.31
55590;BME280;41452;42.780;23.116;2023-02-18T11:15:37;94965.75;;;10.93;45.19
55590;BME280;41452;42.780;23.116;2023-02-18T11:20:55;94949.78;;;11.13;45.00
55590;BME280;41452;42.780;23.116;2023-02-18T11:23:22;94931.31;;;11.19;45.06
55590;BME280;41452;42.780;23.116;2023-02-18T11:26:11;94902.97;;;11.21;45.69
55590;BME280;41452;42.780;23.116;2023-02-18T11:28:41;94931.00;;;11.46;44.60
55590;BME280;41452;42.780;23.116;2023-02-18T11:31:08;94931.25;;;11.56;45.06
55590;BME280;41452;42.780;23.116;2023-02-18T11:33:43;94918.72;;;11.58;45.62
55590;BME280;41452;42.780;23.116;2023-02-18T11:36:44;94926.47;;;11.84;46.45
55590;BME280;41452;42.780;23.116;2023-02-18T11:39:26;94894.19;;;11.76;44.31
55590;BME280;41452;42.780;23.116;2023-02-18T11:41:55;94914.06;;;12.03;45.39
55590;BME280;41452;42.780;23.116;2023-02-18T11:44:40;94911.91;;;12.11;44.92
55590;BME280;41452;42.780;23.116;2023-02-18T11:49:38;94905.66;;;12.36;44.43
55590;BME280;41452;42.780;23.116;2023-02-18T11:54:30;94906.50;;;12.48;42.81
55590;BME280;41452;42.780;23.116;2023-02-18T11:57:09;94892.06;;;12.63;43.71
55590;BME280;41452;42.780;23.116;2023-02-18T11:59:37;94889.88;;;12.71;43.01
55590;BME280;41452;42.780;23.116;2023-02-18T12:05:03;94887.25;;;12.83;42.58
55590;BME280;41452;42.780;23.116;2023-02-18T12:07:38;94860.22;;;12.76;42.33
55590;BME280;41452;42.780;23.116;2023-02-18T12:13:14;94872.00;;;12.85;42.46
55590;BME280;41452;42.780;23.116;2023-02-18T12:24:16;94872.00;;;12.85;43.40
55590;BME280;41452;42.780;23.116;2023-02-18T12:34:53;94852.03;;;13.01;42.51
55590;BME280;41452;42.780;23.116;2023-02-18T13:01:39;94837.56;;;13.16;41.68
55590;BME280;41452;42.780;23.116;2023-02-18T13:13:15;94828.13;;;13.20;41.77
55590;BME280;41452;42.780;23.116;2023-02-18T13:15:47;94844.78;;;13.20;41.88
55590;BME280;41452;42.780;23.116;2023-02-18T13:18:21;94842.25;;;13.13;41.69
55590;BME280;41452;42.780;23.116;2023-02-18T13:20:53;94817.94;;;12.83;42.37
55590;BME280;41452;42.780;23.116;2023-02-18T13:23:27;94841.38;;;13.08;41.56
55590;BME280;41452;42.780;23.116;2023-02-18T13:26:05;94840.22;;;13.04;42.31
55590;BME280;41452;42.780;23.116;2023-02-18T13:31:21;94844.81;;;12.97;41.42
55590;BME280;41452;42.780;23.116;2023-02-18T13:39:55;94840.72;;;12.77;42.39
55590;BME280;41452;42.780;23.116;2023-02-18T13:58:20;94838.56;;;12.62;43.05
55590;BME280;41452;42.780;23.116;2023-02-18T14:00:59;94829.31;;;12.60;43.57
55590;BME280;41452;42.780;23.116;2023-02-18T14:03:35;94824.81;;;12.60;43.07
55590;BME280;41452;42.780;23.116;2023-02-18T14:08:40;94839.03;;;12.59;43.81
55590;BME280;41452;42.780;23.116;2023-02-18T14:13:48;94804.56;;;12.49;44.67
55590;BME280;41452;42.780;23.116;2023-02-18T14:16:18;94821.03;;;12.68;44.52
55590;BME280;41452;42.780;23.116;2023-02-18T14:29:04;94828.03;;;12.62;43.53
55590;BME280;41452;42.780;23.116;2023-02-18T14:48:31;94817.84;;;12.42;44.09
55590;BME280;41452;42.780;23.116;2023-02-18T14:51:03;94821.16;;;12.38;44.71
55590;BME280;41452;42.780;23.116;2023-02-18T14:53:29;94810.19;;;12.41;44.89
55590;BME280;41452;42.780;23.116;2023-02-18T14:56:02;94813.50;;;12.36;44.75
55590;BME280;41452;42.780;23.116;2023-02-18T14:58:31;94813.03;;;12.39;44.69
55590;BME280;41452;42.780;23.116;2023-02-18T15:01:28;94809.16;;;12.30;45.08
55590;BME280;41452;42.780;23.116;2023-02-18T15:03:53;94808.47;;;12.23;44.99
55590;BME280;41452;42.780;23.116;2023-02-18T15:06:31;94809.47;;;12.22;44.71
55590;BME280;41452;42.780;23.116;2023-02-18T15:08:57;94785.78;;;11.98;44.76
55590;BME280;41452;42.780;23.116;2023-02-18T15:11:37;94778.19;;;11.90;45.00
55590;BME280;41452;42.780;23.116;2023-02-18T15:14:10;94814.16;;;12.08;45.64
55590;BME280;41452;42.780;23.116;2023-02-18T15:16:38;94806.75;;;12.05;46.20
55590;BME280;41452;42.780;23.116;2023-02-18T15:19:09;94801.94;;;12.02;45.90
55590;BME280;41452;42.780;23.116;2023-02-18T15:21:40;94796.19;;;11.93;46.29
55590;BME280;41452;42.780;23.116;2023-02-18T15:26:52;94789.44;;;11.97;46.24
55590;BME280;41452;42.780;23.116;2023-02-18T15:29:21;94785.28;;;11.89;46.63
55590;BME280;41452;42.780;23.116;2023-02-18T15:31:48;94794.81;;;11.90;46.64
55590;BME280;41452;42.780;23.116;2023-02-18T15:36:51;94781.16;;;11.82;47.19
55590;BME280;41452;42.780;23.116;2023-02-18T15:39:17;94781.84;;;11.77;47.18
55590;BME280;41452;42.780;23.116;2023-02-18T15:41:42;94783.09;;;11.74;47.14
55590;BME280;41452;42.780;23.116;2023-02-18T15:44:08;94783.09;;;11.74;47.68
55590;BME280;41452;42.780;23.116;2023-02-18T15:46:43;94778.84;;;11.73;47.55
55590;BME280;41452;42.780;23.116;2023-02-18T15:49:08;94775.09;;;11.69;47.61
55590;BME280;41452;42.780;23.116;2023-02-18T15:51:33;94773.91;;;11.65;47.81
55590;BME280;41452;42.780;23.116;2023-02-18T15:54:01;94772.19;;;11.59;48.02
55590;BME280;41452;42.780;23.116;2023-02-18T15:56:37;94778.94;;;11.55;48.71
55590;BME280;41452;42.780;23.116;2023-02-18T15:59:24;94774.44;;;11.44;48.71
55590;BME280;41452;42.780;23.116;2023-02-18T16:01:55;94769.38;;;11.30;49.20
55590;BME280;41452;42.780;23.116;2023-02-18T16:04:27;94768.53;;;11.18;49.58
55590;BME280;41452;42.780;23.116;2023-02-18T16:06:54;94767.69;;;11.06;49.35